Time;durP1;ratioP1;P1;durP2;ratioP2;P2;SDS_P1;SDS_P2;PMS_P1;PMS_P2;Temp;Humidity;BMP_temperature;BMP_pressure;BME280_temperature;BME280_humidity;BME280_pressure;Samples;Min_cycle;Max_cycle;Signal;HPM_P1;HPM_P2
2021/12/23 00:02:12;;;;;;;20.27;11.80;;;;;;;;;;5094759;28;20478;-73
2021/12/23 00:04:39;;;;;;;22.63;13.87;;;;;;;;;;5093992;28;20503;-74
2021/12/23 00:07:06;;;;;;;24.10;12.10;;;;;;;;;;5094684;28;20450;-74
2021/12/23 00:10:01;;;;;;;23.67;15.73;;;;;;;;;;5094408;28;20472;-74
2021/12/23 00:12:25;;;;;;;27.00;14.43;;;;;;;;;;5094567;28;20495;-74
2021/12/23 00:14:54;;;;;;;25.90;14.03;;;;;;;;;;5056631;28;1059207;-74
2021/12/23 00:17:25;;;;;;;21.37;13.03;;;;;;;;;;5095542;28;20544;-74
2021/12/23 00:23:21;;;;;;;20.10;12.30;;;;;;;;;;5095652;28;20507;-74
2021/12/23 00:25:30;;;;;;;22.10;12.40;;;;;;;;;;5095180;28;20460;-74
2021/12/23 00:27:58;;;;;;;21.80;12.10;;;;;;;;;;5095485;28;20454;-74
2021/12/23 00:30:25;;;;;;;23.60;14.80;;;;;;;;;;5095300;28;20574;-74
2021/12/23 00:32:55;;;;;;;24.40;13.80;;;;;;;;;;5095415;28;20450;-73
2021/12/23 00:35:22;;;;;;;25.13;13.63;;;;;;;;;;5095058;28;20524;-74
2021/12/23 00:37:55;;;;;;;25.20;13.77;;;;;;;;;;5095283;28;20452;-74
2021/12/23 00:40:22;;;;;;;26.60;13.13;;;;;;;;;;5095149;28;20460;-74
2021/12/23 00:42:49;;;;;;;28.07;13.20;;;;;;;;;;5095149;28;20797;-74
2021/12/23 00:45:18;;;;;;;23.03;12.30;;;;;;;;;;5094795;28;20488;-74
2021/12/23 00:47:45;;;;;;;24.77;13.30;;;;;;;;;;5094932;28;20457;-74
2021/12/23 00:50:12;;;;;;;34.63;17.10;;;;;;;;;;5095255;28;20449;-74
2021/12/23 00:52:40;;;;;;;29.53;14.33;;;;;;;;;;5095220;28;20817;-74
2021/12/23 00:55:09;;;;;;;25.20;14.17;;;;;;;;;;5094843;28;20461;-74
2021/12/23 00:57:39;;;;;;;29.87;15.33;;;;;;;;;;5094913;28;20818;-73
2021/12/23 01:00:07;;;;;;;20.27;13.40;;;;;;;;;;5095185;28;20469;-74
2021/12/23 01:02:36;;;;;;;29.47;15.60;;;;;;;;;;5094937;28;20461;-73
2021/12/23 01:05:03;;;;;;;29.43;15.60;;;;;;;;;;5094372;28;20491;-73
2021/12/23 01:07:31;;;;;;;22.53;12.47;;;;;;;;;;5094540;28;20449;-73
2021/12/23 01:09:58;;;;;;;22.70;15.23;;;;;;;;;;5094710;28;20433;-73
2021/12/23 01:12:31;;;;;;;28.23;14.77;;;;;;;;;;5094464;28;20448;-73
2021/12/23 01:15:10;;;;;;;21.77;13.43;;;;;;;;;;5093647;28;20486;-73
2021/12/23 01:17:53;;;;;;;27.43;14.87;;;;;;;;;;5093940;28;20496;-73
2021/12/23 01:20:25;;;;;;;26.70;15.93;;;;;;;;;;5094315;28;20447;-74
2021/12/23 01:22:53;;;;;;;27.70;14.70;;;;;;;;;;5094320;28;20475;-74
2021/12/23 01:25:20;;;;;;;31.20;15.40;;;;;;;;;;5093840;28;20494;-73
2021/12/23 01:27:47;;;;;;;36.77;16.33;;;;;;;;;;5094388;28;20454;-73
2021/12/23 01:30:14;;;;;;;25.40;14.43;;;;;;;;;;5094109;28;20458;-73
2021/12/23 01:32:43;;;;;;;26.87;15.50;;;;;;;;;;5094395;28;20495;-73
2021/12/23 01:35:10;;;;;;;24.77;15.37;;;;;;;;;;5093768;28;20468;-73
2021/12/23 01:37:38;;;;;;;35.80;15.23;;;;;;;;;;5093943;28;20484;-73
2021/12/23 01:40:06;;;;;;;30.57;16.30;;;;;;;;;;5094082;28;20454;-73
2021/12/23 01:42:33;;;;;;;29.43;15.87;;;;;;;;;;5093502;28;20449;-74
2021/12/23 01:45:00;;;;;;;36.30;16.40;;;;;;;;;;5093524;28;20487;-74
2021/12/23 01:47:29;;;;;;;32.13;14.90;;;;;;;;;;5093533;28;20832;-74
2021/12/23 01:49:58;;;;;;;34.13;15.03;;;;;;;;;;5093679;28;20454;-73
2021/12/23 01:52:25;;;;;;;36.50;19.30;;;;;;;;;;5093655;28;20823;-73
2021/12/23 01:54:52;;;;;;;27.30;15.60;;;;;;;;;;5093321;28;20468;-73
2021/12/23 01:57:19;;;;;;;32.77;14.97;;;;;;;;;;5093410;28;20465;-74
2021/12/23 01:59:46;;;;;;;27.30;13.47;;;;;;;;;;5093246;28;20450;-74
2021/12/23 02:02:13;;;;;;;26.27;16.00;;;;;;;;;;5093608;28;20456;-73
2021/12/23 02:04:40;;;;;;;31.07;16.03;;;;;;;;;;5093006;28;20492;-73
2021/12/23 02:07:09;;;;;;;27.27;15.70;;;;;;;;;;5093427;28;20457;-73
2021/12/23 02:09:36;;;;;;;28.07;14.43;;;;;;;;;;5093328;28;20469;-73
2021/12/23 02:12:03;;;;;;;32.77;16.13;;;;;;;;;;5093359;28;20450;-73
2021/12/23 02:14:30;;;;;;;26.63;14.10;;;;;;;;;;5092490;28;20481;-74
2021/12/23 02:16:57;;;;;;;29.67;13.73;;;;;;;;;;5093452;28;20471;-73
2021/12/23 02:19:25;;;;;;;35.20;17.77;;;;;;;;;;5093314;28;20953;-73
2021/12/23 02:21:53;;;;;;;28.90;13.97;;;;;;;;;;5093398;28;20465;-73
2021/12/23 02:24:20;;;;;;;30.17;15.80;;;;;;;;;;5092809;28;20496;-74
2021/12/23 02:26:47;;;;;;;30.50;15.60;;;;;;;;;;5093074;28;20461;-74
2021/12/23 02:29:14;;;;;;;22.27;14.87;;;;;;;;;;5093155;28;20781;-73
2021/12/23 02:31:42;;;;;;;24.30;12.60;;;;;;;;;;5093282;28;20458;-73
2021/12/23 02:34:09;;;;;;;23.67;13.90;;;;;;;;;;5092799;28;20450;-73
2021/12/23 02:36:36;;;;;;;37.27;15.77;;;;;;;;;;5093196;28;20445;-73
2021/12/23 02:39:04;;;;;;;29.00;14.23;;;;;;;;;;5093100;28;20822;-73
2021/12/23 02:41:31;;;;;;;26.47;15.27;;;;;;;;;;5092946;28;20449;-73
2021/12/23 02:43:59;;;;;;;24.77;15.20;;;;;;;;;;5092599;28;20464;-73
2021/12/23 02:46:26;;;;;;;31.70;15.20;;;;;;;;;;5092883;28;20461;-73
2021/12/23 02:48:53;;;;;;;30.70;15.43;;;;;;;;;;5093126;28;20456;-73
2021/12/23 02:51:20;;;;;;;30.80;16.40;;;;;;;;;;5092968;28;20452;-73
2021/12/23 02:53:47;;;;;;;26.57;15.07;;;;;;;;;;5093034;28;20453;-74
2021/12/23 02:56:16;;;;;;;31.43;14.50;;;;;;;;;;5093002;28;20853;-74
2021/12/23 02:58:45;;;;;;;26.50;16.00;;;;;;;;;;5092735;28;20494;-74
2021/12/23 03:01:14;;;;;;;17.83;11.20;;;;;;;;;;5092840;28;20449;-74
2021/12/23 03:03:42;;;;;;;23.93;14.50;;;;;;;;;;5092408;28;20482;-74
2021/12/23 03:06:09;;;;;;;27.37;13.10;;;;;;;;;;5092682;28;20904;-74
2021/12/23 03:08:38;;;;;;;23.67;15.20;;;;;;;;;;5092903;28;20452;-73
2021/12/23 03:11:05;;;;;;;31.53;14.77;;;;;;;;;;5092900;28;20950;-73
2021/12/23 03:13:34;;;;;;;21.07;15.10;;;;;;;;;;5092613;28;20938;-73
2021/12/23 03:16:02;;;;;;;26.37;13.53;;;;;;;;;;5092081;28;20482;-73
2021/12/23 03:18:29;;;;;;;32.43;16.67;;;;;;;;;;5093110;28;20451;-73
2021/12/23 03:20:57;;;;;;;24.33;15.30;;;;;;;;;;5093008;28;20929;-73
2021/12/23 03:23:24;;;;;;;23.67;15.00;;;;;;;;;;5092571;28;20453;-73
2021/12/23 03:25:51;;;;;;;24.20;12.67;;;;;;;;;;5092801;28;20845;-73
2021/12/23 03:28:19;;;;;;;21.57;14.47;;;;;;;;;;5092692;28;20456;-73
2021/12/23 03:30:48;;;;;;;29.57;16.13;;;;;;;;;;5092757;28;20797;-73
2021/12/23 03:33:15;;;;;;;28.60;12.70;;;;;;;;;;5092707;28;20453;-73
2021/12/23 03:35:42;;;;;;;24.90;14.17;;;;;;;;;;5092369;28;20477;-73
2021/12/23 03:38:09;;;;;;;28.53;14.27;;;;;;;;;;5092613;28;20789;-73
2021/12/23 03:40:36;;;;;;;30.70;15.97;;;;;;;;;;5095705;28;20460;-74
2021/12/23 03:43:04;;;;;;;23.10;14.63;;;;;;;;;;5095878;28;20461;-74
2021/12/23 03:45:31;;;;;;;27.00;14.90;;;;;;;;;;5095859;28;20493;-74
2021/12/23 03:47:59;;;;;;;29.43;14.43;;;;;;;;;;5096292;28;20447;-73
2021/12/23 03:50:27;;;;;;;23.93;14.47;;;;;;;;;;5096042;28;20451;-73
2021/12/23 03:52:54;;;;;;;26.87;14.90;;;;;;;;;;5096081;28;20470;-73
2021/12/23 03:55:21;;;;;;;32.87;17.60;;;;;;;;;;5095755;28;20532;-73
2021/12/23 03:57:48;;;;;;;25.53;15.70;;;;;;;;;;5096030;28;20446;-73
2021/12/23 04:00:17;;;;;;;26.00;16.13;;;;;;;;;;5096393;28;20450;-73
2021/12/23 04:02:44;;;;;;;19.70;12.40;;;;;;;;;;5096022;28;20452;-73
2021/12/23 04:05:13;;;;;;;24.03;15.77;;;;;;;;;;5095486;28;20491;-74
2021/12/23 04:07:40;;;;;;;30.17;17.67;;;;;;;;;;5095805;28;20455;-74
2021/12/23 04:10:08;;;;;;;29.33;17.33;;;;;;;;;;5096065;28;20807;-74
2021/12/23 04:12:35;;;;;;;25.70;15.17;;;;;;;;;;5095617;28;20449;-74
2021/12/23 04:15:02;;;;;;;36.87;18.37;;;;;;;;;;5094699;28;20484;-74
2021/12/23 04:17:30;;;;;;;25.87;15.20;;;;;;;;;;5095571;28;20452;-74
2021/12/23 04:20:03;;;;;;;28.47;14.83;;;;;;;;;;5095564;28;20464;-74
2021/12/23 04:22:31;;;;;;;26.83;16.17;;;;;;;;;;5095506;28;20459;-74
2021/12/23 04:24:58;;;;;;;23.13;14.70;;;;;;;;;;5095119;28;20487;-74
2021/12/23 04:27:25;;;;;;;29.10;16.10;;;;;;;;;;5095301;28;20821;-74
2021/12/23 04:29:53;;;;;;;25.10;17.23;;;;;;;;;;5095447;28;20461;-74
2021/12/23 04:32:20;;;;;;;38.87;18.60;;;;;;;;;;5095173;28;20460;-74
2021/12/23 04:34:47;;;;;;;30.20;16.73;;;;;;;;;;5095232;28;20475;-74
2021/12/23 04:37:14;;;;;;;26.13;17.47;;;;;;;;;;5095376;28;20453;-73
2021/12/23 04:39:43;;;;;;;27.13;14.10;;;;;;;;;;5095069;28;20456;-73
2021/12/23 04:42:10;;;;;;;31.60;15.77;;;;;;;;;;5095101;28;20446;-73
2021/12/23 04:44:37;;;;;;;30.63;16.47;;;;;;;;;;5094612;28;20480;-73
2021/12/23 04:47:04;;;;;;;26.20;14.57;;;;;;;;;;5095060;28;20446;-73
2021/12/23 04:49:31;;;;;;;35.50;16.50;;;;;;;;;;5094875;28;20456;-73
2021/12/23 04:51:58;;;;;;;39.93;17.17;;;;;;;;;;5093752;28;20453;-73
2021/12/23 04:54:26;;;;;;;41.60;18.13;;;;;;;;;;5094475;28;20481;-74
2021/12/23 04:56:54;;;;;;;32.30;16.23;;;;;;;;;;5094827;28;20935;-74
2021/12/23 04:59:21;;;;;;;38.93;18.40;;;;;;;;;;5094781;28;20450;-73
2021/12/23 05:01:50;;;;;;;41.10;17.03;;;;;;;;;;5094824;28;20836;-73
2021/12/23 05:04:17;;;;;;;26.30;14.70;;;;;;;;;;5094493;28;20531;-73
2021/12/23 05:06:44;;;;;;;28.40;14.20;;;;;;;;;;5094582;28;20498;-74
2021/12/23 05:09:11;;;;;;;29.70;16.20;;;;;;;;;;5094675;28;20447;-73
2021/12/23 05:11:38;;;;;;;29.47;14.70;;;;;;;;;;5094360;28;20450;-73
2021/12/23 05:14:07;;;;;;;21.97;13.50;;;;;;;;;;5093876;28;20958;-73
2021/12/23 05:16:34;;;;;;;30.37;12.87;;;;;;;;;;5094426;28;20466;-73
2021/12/23 05:19:01;;;;;;;29.87;15.60;;;;;;;;;;5094668;28;20478;-73
2021/12/23 05:21:28;;;;;;;28.67;13.70;;;;;;;;;;5094393;28;20474;-73
2021/12/23 05:23:55;;;;;;;27.00;12.50;;;;;;;;;;5094119;28;20451;-73
2021/12/23 05:26:22;;;;;;;29.00;14.77;;;;;;;;;;5094194;28;20502;-73
2021/12/23 05:28:50;;;;;;;25.93;14.23;;;;;;;;;;5094104;28;20449;-73
2021/12/23 05:31:18;;;;;;;20.07;13.40;;;;;;;;;;5094181;28;20449;-73
2021/12/23 05:33:45;;;;;;;26.13;14.03;;;;;;;;;;5093979;28;20924;-74
2021/12/23 05:36:12;;;;;;;32.57;14.73;;;;;;;;;;5094048;28;20474;-74
2021/12/23 05:38:39;;;;;;;21.80;13.73;;;;;;;;;;5093911;28;20454;-74
2021/12/23 05:41:06;;;;;;;26.27;13.97;;;;;;;;;;5094175;28;20457;-74
2021/12/23 05:43:34;;;;;;;31.93;17.67;;;;;;;;;;5093649;28;20456;-74
2021/12/23 05:46:01;;;;;;;23.23;12.30;;;;;;;;;;5093703;28;20482;-73
2021/12/23 05:48:29;;;;;;;30.77;15.10;;;;;;;;;;5093703;28;20461;-73
2021/12/23 05:50:56;;;;;;;26.07;15.17;;;;;;;;;;5094011;28;20806;-73
2021/12/23 05:53:23;;;;;;;28.80;15.07;;;;;;;;;;5093608;28;20810;-74
2021/12/23 05:55:52;;;;;;;24.23;14.20;;;;;;;;;;5093661;28;20480;-74
2021/12/23 05:58:20;;;;;;;34.13;13.97;;;;;;;;;;5093835;28;20458;-74
2021/12/23 06:00:47;;;;;;;36.10;17.20;;;;;;;;;;5093659;28;20453;-74
2021/12/23 06:03:14;;;;;;;44.73;18.73;;;;;;;;;;5093220;28;20457;-74
2021/12/23 06:05:42;;;;;;;30.10;15.57;;;;;;;;;;5093130;28;20530;-74
2021/12/23 06:08:09;;;;;;;30.60;15.10;;;;;;;;;;5093549;28;20458;-74
2021/12/23 06:10:36;;;;;;;38.33;17.37;;;;;;;;;;5093502;28;20462;-74
2021/12/23 06:13:03;;;;;;;28.87;15.97;;;;;;;;;;5093365;28;20454;-74
2021/12/23 06:15:31;;;;;;;32.20;14.77;;;;;;;;;;5092478;28;20475;-74
2021/12/23 06:17:58;;;;;;;24.93;15.53;;;;;;;;;;5093526;28;20448;-74
2021/12/23 06:20:25;;;;;;;27.60;14.80;;;;;;;;;;5093290;28;20445;-74
2021/12/23 06:22:53;;;;;;;21.13;13.83;;;;;;;;;;5093499;28;20937;-74
2021/12/23 06:25:21;;;;;;;28.60;14.83;;;;;;;;;;5092856;28;20484;-74
2021/12/23 06:27:48;;;;;;;24.53;16.07;;;;;;;;;;5093522;28;20454;-73
2021/12/23 06:30:17;;;;;;;30.30;15.63;;;;;;;;;;5093451;28;20927;-73
2021/12/23 06:32:45;;;;;;;23.23;14.47;;;;;;;;;;5093284;28;20454;-73
2021/12/23 06:35:12;;;;;;;29.83;14.50;;;;;;;;;;5093278;28;20857;-73
2021/12/23 06:37:40;;;;;;;27.20;15.77;;;;;;;;;;5093145;28;20458;-73
2021/12/23 06:40:09;;;;;;;23.70;14.20;;;;;;;;;;5093237;28;20450;-73
2021/12/23 06:42:37;;;;;;;29.23;15.47;;;;;;;;;;5093051;28;20448;-74
2021/12/23 06:45:04;;;;;;;30.17;16.80;;;;;;;;;;5092702;28;20469;-74
2021/12/23 06:47:31;;;;;;;28.17;15.67;;;;;;;;;;5092852;28;20450;-74
2021/12/23 06:49:58;;;;;;;43.97;18.97;;;;;;;;;;5092993;28;20460;-74
2021/12/23 06:52:25;;;;;;;25.13;14.93;;;;;;;;;;5092960;28;20828;-74
2021/12/23 06:54:55;;;;;;;30.07;15.13;;;;;;;;;;5092772;28;20928;-73
2021/12/23 06:57:25;;;;;;;28.67;15.67;;;;;;;;;;5092842;28;20553;-73
2021/12/23 06:59:52;;;;;;;26.00;15.43;;;;;;;;;;5092995;28;20501;-73
2021/12/23 07:02:19;;;;;;;29.83;14.13;;;;;;;;;;5092886;28;20947;-73
2021/12/23 07:04:46;;;;;;;28.67;15.70;;;;;;;;;;5092725;28;20493;-73
2021/12/23 07:07:25;;;;;;;30.17;17.70;;;;;;;;;;5092877;28;20858;-74
2021/12/23 07:09:53;;;;;;;25.60;15.83;;;;;;;;;;5093084;28;20521;-73
2021/12/23 07:12:20;;;;;;;27.47;15.23;;;;;;;;;;5092710;28;21012;-73
2021/12/23 07:14:49;;;;;;;35.53;16.80;;;;;;;;;;5094003;28;20462;-73
2021/12/23 07:17:17;;;;;;;31.60;16.43;;;;;;;;;;5096746;28;20448;-73
2021/12/23 07:19:44;;;;;;;27.80;14.93;;;;;;;;;;5096799;28;20450;-73
2021/12/23 07:22:11;;;;;;;25.17;14.87;;;;;;;;;;5096695;28;20450;-73
2021/12/23 07:24:39;;;;;;;65.50;31.33;;;;;;;;;;5096375;28;20922;-73
2021/12/23 07:27:07;;;;;;;36.40;17.50;;;;;;;;;;5096446;28;20486;-73
2021/12/23 07:29:34;;;;;;;36.03;18.07;;;;;;;;;;5096415;28;20528;-73
2021/12/23 07:32:04;;;;;;;28.23;15.40;;;;;;;;;;5096582;28;20451;-73
2021/12/23 07:34:31;;;;;;;26.07;15.40;;;;;;;;;;5096267;28;20491;-73
2021/12/23 07:36:58;;;;;;;32.97;19.20;;;;;;;;;;5096456;28;20446;-73
2021/12/23 07:39:26;;;;;;;28.20;14.70;;;;;;;;;;5096460;28;20453;-73
2021/12/23 07:41:53;;;;;;;38.43;17.07;;;;;;;;;;5096397;28;20463;-73
2021/12/23 07:44:21;;;;;;;26.47;16.00;;;;;;;;;;5096029;28;20491;-73
2021/12/23 07:46:49;;;;;;;39.33;20.87;;;;;;;;;;5096191;28;20478;-74
2021/12/23 07:49:17;;;;;;;33.57;21.77;;;;;;;;;;5096264;28;20446;-74
2021/12/23 07:51:45;;;;;;;56.80;23.87;;;;;;;;;;5095690;28;20462;-74
2021/12/23 07:54:12;;;;;;;51.00;20.30;;;;;;;;;;5095841;28;20974;-74
2021/12/23 07:56:39;;;;;;;48.97;20.03;;;;;;;;;;5096075;28;20454;-74
2021/12/23 07:59:06;;;;;;;44.77;25.90;;;;;;;;;;5096201;28;20455;-74
2021/12/23 08:01:33;;;;;;;45.80;22.60;;;;;;;;;;5095963;28;20453;-74
2021/12/23 08:04:00;;;;;;;31.17;17.20;;;;;;;;;;5095604;28;20935;-73
2021/12/23 08:06:29;;;;;;;38.40;18.50;;;;;;;;;;5095599;28;20482;-73
2021/12/23 08:08:56;;;;;;;32.00;18.07;;;;;;;;;;5095726;28;20460;-73
2021/12/23 08:11:23;;;;;;;40.23;21.70;;;;;;;;;;5095678;28;20446;-73
2021/12/23 08:13:50;;;;;;;37.60;19.37;;;;;;;;;;5095445;28;20461;-73
2021/12/23 08:16:17;;;;;;;34.70;19.70;;;;;;;;;;5095132;28;20469;-73
2021/12/23 08:18:45;;;;;;;32.37;16.53;;;;;;;;;;5095677;28;20447;-73
2021/12/23 08:21:12;;;;;;;34.43;19.97;;;;;;;;;;5095519;28;20451;-74
2021/12/23 08:23:40;;;;;;;29.53;14.33;;;;;;;;;;5095433;28;20810;-74
2021/12/23 08:26:14;;;;;;;30.80;16.47;;;;;;;;;;5095096;28;20494;-74
2021/12/23 08:28:41;;;;;;;27.27;15.77;;;;;;;;;;5095773;28;20853;-74
2021/12/23 08:31:09;;;;;;;35.40;24.40;;;;;;;;;;5095343;28;20447;-74
2021/12/23 08:33:36;;;;;;;42.67;23.23;;;;;;;;;;5094981;28;20456;-73
2021/12/23 08:36:03;;;;;;;33.87;17.30;;;;;;;;;;5095227;28;20474;-73
2021/12/23 08:38:30;;;;;;;29.33;19.47;;;;;;;;;;5095342;28;20458;-73
2021/12/23 08:40:59;;;;;;;30.30;17.10;;;;;;;;;;5086818;28;20450;-74
2021/12/23 08:43:26;;;;;;;28.80;16.43;;;;;;;;;;5095019;28;20943;-74
2021/12/23 08:45:53;;;;;;;37.50;21.30;;;;;;;;;;5094965;28;20466;-74
2021/12/23 08:48:20;;;;;;;38.20;22.23;;;;;;;;;;5094977;28;20450;-74
2021/12/23 08:50:47;;;;;;;34.10;18.97;;;;;;;;;;5094971;28;20470;-74
2021/12/23 08:53:14;;;;;;;32.20;19.57;;;;;;;;;;5094952;28;20458;-74
2021/12/23 08:55:41;;;;;;;30.67;16.83;;;;;;;;;;5094461;28;20474;-74
2021/12/23 08:58:10;;;;;;;38.00;18.87;;;;;;;;;;5094968;28;20462;-73
2021/12/23 09:00:38;;;;;;;35.77;19.80;;;;;;;;;;5095046;28;20918;-73
2021/12/23 09:03:06;;;;;;;27.40;16.27;;;;;;;;;;5094933;28;20469;-73
2021/12/23 09:05:33;;;;;;;26.27;14.50;;;;;;;;;;5094323;28;20479;-73
2021/12/23 09:08:00;;;;;;;31.13;15.40;;;;;;;;;;5094892;28;20486;-74
2021/12/23 09:10:28;;;;;;;25.27;14.40;;;;;;;;;;5094560;28;20458;-74
2021/12/23 09:12:55;;;;;;;29.57;16.80;;;;;;;;;;5094536;28;20451;-74
2021/12/23 09:15:23;;;;;;;27.70;18.00;;;;;;;;;;5093648;28;20588;-74
2021/12/23 09:17:50;;;;;;;29.93;16.60;;;;;;;;;;5094458;28;20490;-74
2021/12/23 09:20:19;;;;;;;35.57;16.33;;;;;;;;;;5094372;28;20458;-74
2021/12/23 09:22:47;;;;;;;22.83;16.20;;;;;;;;;;5094429;28;20447;-74
2021/12/23 09:25:23;;;;;;;30.37;18.10;;;;;;;;;;5094151;28;20474;-74
2021/12/23 09:33:21;;;;;;;30.03;15.80;;;;;;;;;;5094270;28;20422;-74
2021/12/23 09:35:48;;;;;;;31.90;17.27;;;;;;;;;;5093928;28;20462;-74
2021/12/23 09:38:16;;;;;;;28.17;17.40;;;;;;;;;;5093655;28;20453;-73
2021/12/23 09:40:43;;;;;;;25.50;16.50;;;;;;;;;;5094019;28;20443;-73
2021/12/23 09:43:11;;;;;;;38.43;15.97;;;;;;;;;;5094087;28;20453;-73
2021/12/23 09:45:41;;;;;;;33.00;16.17;;;;;;;;;;5093577;28;20980;-74
2021/12/23 09:48:09;;;;;;;30.30;16.80;;;;;;;;;;5094009;28;20493;-74
2021/12/23 09:50:38;;;;;;;25.50;15.53;;;;;;;;;;5094003;28;20459;-74
2021/12/23 09:53:06;;;;;;;31.50;17.23;;;;;;;;;;5093921;28;20457;-73
2021/12/23 09:55:35;;;;;;;22.40;15.33;;;;;;;;;;5093387;28;20466;-73
2021/12/23 09:58:03;;;;;;;30.10;16.37;;;;;;;;;;5093538;28;20446;-73
2021/12/23 10:00:32;;;;;;;30.03;14.00;;;;;;;;;;5093679;28;20442;-73
2021/12/23 10:03:00;;;;;;;20.47;13.30;;;;;;;;;;5093734;28;20462;-73
2021/12/23 10:05:28;;;;;;;26.30;14.67;;;;;;;;;;5093300;28;20470;-73
2021/12/23 10:07:56;;;;;;;25.33;14.93;;;;;;;;;;5093427;28;20490;-73
2021/12/23 10:10:28;;;;;;;30.80;15.03;;;;;;;;;;5093830;28;20455;-72
2021/12/23 10:32:36;;;;;;;27.17;14.83;;;;;;;;;;5093362;28;20472;-73
2021/12/23 10:38:02;;;;;;;17.27;11.57;;;;;;;;;;5093411;28;20480;-72
2021/12/23 10:40:30;;;;;;;16.77;11.93;;;;;;;;;;5093243;28;20450;-72
2021/12/23 10:42:58;;;;;;;20.93;12.83;;;;;;;;;;5093101;28;20455;-71
2021/12/23 10:45:25;;;;;;;13.93;10.30;;;;;;;;;;5092701;28;20477;-73
2021/12/23 10:47:57;;;;;;;21.03;12.33;;;;;;;;;;5093582;28;20490;-73
2021/12/23 10:50:32;;;;;;;17.43;11.90;;;;;;;;;;5097317;28;20955;-71
2021/12/23 10:53:02;;;;;;;29.00;16.30;;;;;;;;;;5097824;28;20453;-71
2021/12/23 10:58:16;;;;;;;23.10;15.40;;;;;;;;;;5097372;28;20502;-73
2021/12/23 11:00:46;;;;;;;25.80;15.60;;;;;;;;;;5097028;28;20438;-73
2021/12/23 11:03:18;;;;;;;21.23;14.03;;;;;;;;;;5097214;28;20472;-73
2021/12/23 11:05:52;;;;;;;23.43;15.17;;;;;;;;;;5096799;28;20478;-71
2021/12/23 11:08:27;;;;;;;24.67;17.10;;;;;;;;;;5096902;28;20486;-71
2021/12/23 11:11:23;;;;;;;25.43;14.20;;;;;;;;;;5097036;28;20453;-71
2021/12/23 11:36:33;;;;;;;21.73;12.37;;;;;;;;;;5077492;28;20431;-72
2021/12/23 11:39:23;;;;;;;20.87;13.90;;;;;;;;;;5090599;28;20539;-72
2021/12/23 11:41:59;;;;;;;25.20;12.90;;;;;;;;;;5090514;28;21017;-72
2021/12/23 11:44:30;;;;;;;34.00;21.17;;;;;;;;;;5090080;28;20474;-72
2021/12/23 11:47:05;;;;;;;24.00;14.00;;;;;;;;;;5090504;28;20530;-73
2021/12/23 11:49:34;;;;;;;19.03;11.83;;;;;;;;;;5090080;28;20490;-73
2021/12/23 11:52:02;;;;;;;32.53;14.43;;;;;;;;;;5090173;28;20459;-73
2021/12/23 11:54:31;;;;;;;27.50;15.07;;;;;;;;;;5089874;28;20471;-73
2021/12/23 11:57:03;;;;;;;26.10;15.53;;;;;;;;;;5090210;28;20447;-73
2021/12/23 11:59:30;;;;;;;22.03;13.97;;;;;;;;;;5090167;28;20466;-73
2021/12/23 12:01:59;;;;;;;19.33;13.80;;;;;;;;;;5090146;28;20458;-73
2021/12/23 12:04:27;;;;;;;20.17;12.53;;;;;;;;;;5089693;28;20463;-73
2021/12/23 12:06:55;;;;;;;22.43;12.43;;;;;;;;;;5089937;28;20470;-73
2021/12/23 12:09:23;;;;;;;20.53;12.70;;;;;;;;;;5089715;28;20494;-73
2021/12/23 12:12:04;;;;;;;21.83;14.00;;;;;;;;;;5089760;28;20855;-73
2021/12/23 12:14:32;;;;;;;18.37;11.73;;;;;;;;;;5088947;28;20470;-72
2021/12/23 12:17:14;;;;;;;21.47;12.60;;;;;;;;;;5089755;28;20932;-73
2021/12/23 12:19:53;;;;;;;17.50;10.87;;;;;;;;;;5089473;28;20439;-73
2021/12/23 12:22:35;;;;;;;17.47;10.47;;;;;;;;;;5089949;28;20446;-73
2021/12/23 12:25:02;;;;;;;15.90;10.93;;;;;;;;;;5089063;28;20474;-73
2021/12/23 12:27:31;;;;;;;21.83;11.87;;;;;;;;;;5089482;28;20458;-73
2021/12/23 12:30:05;;;;;;;20.40;11.23;;;;;;;;;;5089363;28;20494;-73
2021/12/23 12:32:36;;;;;;;20.13;11.93;;;;;;;;;;5089322;28;20457;-73
2021/12/23 12:35:11;;;;;;;26.53;12.73;;;;;;;;;;5089173;28;20967;-73
2021/12/23 12:37:41;;;;;;;39.57;23.97;;;;;;;;;;5089337;28;20454;-73
2021/12/23 12:40:09;;;;;;;20.70;12.43;;;;;;;;;;5086277;28;20807;-73
2021/12/23 12:42:40;;;;;;;21.60;13.47;;;;;;;;;;5075660;28;20458;-72
2021/12/23 12:45:12;;;;;;;16.03;11.03;;;;;;;;;;5074773;28;21030;-72
2021/12/23 12:47:48;;;;;;;20.17;12.17;;;;;;;;;;5075102;28;20444;-72
2021/12/23 12:50:18;;;;;;;34.00;18.50;;;;;;;;;;5075771;28;20580;-72
2021/12/23 12:52:45;;;;;;;28.67;16.43;;;;;;;;;;5076060;28;20456;-72
2021/12/23 12:55:14;;;;;;;69.47;31.30;;;;;;;;;;5075625;28;20476;-72
2021/12/23 12:57:43;;;;;;;23.17;12.47;;;;;;;;;;5075791;28;20452;-72
2021/12/23 13:00:21;;;;;;;19.90;11.50;;;;;;;;;;5075339;28;20488;-72
2021/12/23 13:02:56;;;;;;;18.90;11.30;;;;;;;;;;5075446;28;20952;-72
2021/12/23 13:05:28;;;;;;;17.03;11.07;;;;;;;;;;5075174;28;20836;-72
2021/12/23 13:07:56;;;;;;;72.50;33.00;;;;;;;;;;5076185;28;20927;-72
2021/12/23 13:10:28;;;;;;;17.83;11.67;;;;;;;;;;5075350;28;20488;-72
2021/12/23 13:12:57;;;;;;;16.13;11.07;;;;;;;;;;5075660;28;20456;-72
2021/12/23 13:15:25;;;;;;;16.77;8.67;;;;;;;;;;5074178;28;20518;-72
2021/12/23 13:18:00;;;;;;;17.93;11.83;;;;;;;;;;5075330;28;20452;-72
2021/12/23 13:20:45;;;;;;;30.33;15.93;;;;;;;;;;5075589;28;20447;-72
2021/12/23 13:23:15;;;;;;;20.10;11.93;;;;;;;;;;5075504;28;20459;-72
2021/12/23 13:25:49;;;;;;;30.73;13.33;;;;;;;;;;5074788;28;20486;-72
2021/12/23 13:28:21;;;;;;;25.53;17.20;;;;;;;;;;5075018;28;20819;-72
2021/12/23 13:30:48;;;;;;;34.10;18.30;;;;;;;;;;5074980;28;20579;-72
2021/12/23 13:33:15;;;;;;;39.60;20.80;;;;;;;;;;5073834;28;20452;-72
2021/12/23 13:35:43;;;;;;;27.30;15.80;;;;;;;;;;5074534;28;20468;-72
2021/12/23 13:38:11;;;;;;;25.67;14.90;;;;;;;;;;5074423;28;20949;-72
2021/12/23 13:40:39;;;;;;;37.70;17.50;;;;;;;;;;5074339;28;20440;-72
2021/12/23 13:43:06;;;;;;;32.93;20.63;;;;;;;;;;5074288;28;20975;-72
2021/12/23 13:45:33;;;;;;;41.90;27.60;;;;;;;;;;5074200;28;20478;-72
2021/12/23 13:48:00;;;;;;;40.90;20.00;;;;;;;;;;5073939;28;20937;-72
2021/12/23 13:50:28;;;;;;;26.27;17.20;;;;;;;;;;5074208;28;20484;-72
2021/12/23 13:52:57;;;;;;;29.03;16.30;;;;;;;;;;5072887;28;20460;-72
2021/12/23 13:55:26;;;;;;;29.77;17.40;;;;;;;;;;5074124;28;20475;-72
2021/12/23 13:57:55;;;;;;;29.33;14.77;;;;;;;;;;5074396;28;20448;-72
2021/12/23 14:00:24;;;;;;;25.33;15.00;;;;;;;;;;5074046;28;20479;-72
2021/12/23 14:02:53;;;;;;;27.43;16.10;;;;;;;;;;5073986;28;20459;-72
2021/12/23 14:05:21;;;;;;;23.70;13.27;;;;;;;;;;5074014;28;20968;-72
2021/12/23 14:07:49;;;;;;;26.70;15.60;;;;;;;;;;5073930;28;20458;-72
2021/12/23 14:10:19;;;;;;;23.57;14.67;;;;;;;;;;5074410;28;20849;-72
2021/12/23 14:12:48;;;;;;;33.87;15.73;;;;;;;;;;5073995;28;20451;-72
2021/12/23 14:15:16;;;;;;;42.43;23.27;;;;;;;;;;5073110;28;20498;-72
2021/12/23 14:17:45;;;;;;;38.93;20.33;;;;;;;;;;5073914;28;20448;-72
2021/12/23 14:23:15;;;;;;;34.60;20.30;;;;;;;;;;5073927;28;20451;-72
2021/12/23 14:25:45;;;;;;;40.67;20.30;;;;;;;;;;5073354;28;20483;-72
2021/12/23 14:28:13;;;;;;;37.93;21.47;;;;;;;;;;5074042;28;20458;-72
2021/12/23 14:30:41;;;;;;;34.87;18.10;;;;;;;;;;5074111;28;20494;-72
2021/12/23 14:33:10;;;;;;;152.03;53.33;;;;;;;;;;5074129;28;20944;-72
2021/12/23 14:35:37;;;;;;;90.10;37.67;;;;;;;;;;5073140;28;20483;-72
2021/12/23 14:38:04;;;;;;;96.30;38.10;;;;;;;;;;5074182;28;20788;-72
2021/12/23 14:40:31;;;;;;;148.83;54.57;;;;;;;;;;5073953;28;20444;-72
2021/12/23 14:43:00;;;;;;;185.47;70.47;;;;;;;;;;5073233;28;20467;-72
2021/12/23 14:45:27;;;;;;;47.03;25.87;;;;;;;;;;5072792;28;21027;-72
2021/12/23 14:48:08;;;;;;;33.33;19.77;;;;;;;;;;5073294;28;20456;-72
2021/12/23 14:50:50;;;;;;;39.00;18.50;;;;;;;;;;5072426;28;21027;-72
2021/12/23 14:53:21;;;;;;;38.90;19.50;;;;;;;;;;5072939;28;20454;-72
2021/12/23 14:55:56;;;;;;;32.00;19.43;;;;;;;;;;5073266;28;20843;-72
2021/12/23 14:58:24;;;;;;;31.60;17.90;;;;;;;;;;5073386;28;20940;-72
2021/12/23 15:00:52;;;;;;;31.30;20.70;;;;;;;;;;5073278;28;20466;-72
2021/12/23 15:03:20;;;;;;;38.63;19.00;;;;;;;;;;5072890;28;20463;-72
2021/12/23 15:05:48;;;;;;;37.87;21.27;;;;;;;;;;5072795;28;20537;-72
2021/12/23 15:08:20;;;;;;;36.10;18.00;;;;;;;;;;5073286;28;20448;-72
2021/12/23 15:10:48;;;;;;;33.23;18.70;;;;;;;;;;5073073;28;20965;-72
2021/12/23 15:13:28;;;;;;;69.80;34.07;;;;;;;;;;5073150;28;20458;-72
2021/12/23 15:16:07;;;;;;;37.57;20.33;;;;;;;;;;5073090;28;20468;-72
2021/12/23 15:18:44;;;;;;;28.80;17.20;;;;;;;;;;5073166;28;20886;-72
2021/12/23 15:21:19;;;;;;;28.10;17.63;;;;;;;;;;5064759;28;20554;-72
2021/12/23 15:23:47;;;;;;;36.93;15.97;;;;;;;;;;5071464;28;20494;-72
2021/12/23 15:26:21;;;;;;;34.83;18.27;;;;;;;;;;5071305;28;20567;-72